createdAt,value
2023-03-03T00:00:36.496Z,98603.78
2023-03-03T00:05:40.672Z,98602.06
2023-03-03T00:10:47.060Z,98600.63
2023-03-03T00:15:51.903Z,98592.72
2023-03-03T00:20:57.908Z,98586.34
2023-03-03T00:26:03.827Z,98580.59
2023-03-03T00:31:16.584Z,98573.44
2023-03-03T00:36:32.841Z,98579.50
2023-03-03T00:41:40.436Z,98579.91
2023-03-03T00:46:45.198Z,98577.16
2023-03-03T00:51:49.389Z,98577.25
2023-03-03T00:56:54.726Z,98577.16
2023-03-03T01:01:59.316Z,98576.97
2023-03-03T01:07:03.359Z,98567.50
2023-03-03T01:12:09.292Z,98567.41
2023-03-03T01:17:13.461Z,98566.44
2023-03-03T01:22:17.795Z,98557.38
2023-03-03T01:27:23.291Z,98563.31
2023-03-03T01:32:27.702Z,98566.25
2023-03-03T01:37:32.024Z,98555.31
2023-03-03T01:42:37.598Z,98559.44
2023-03-03T01:47:43.977Z,98559.03
2023-03-03T01:52:48.566Z,98560.66
2023-03-03T01:57:59.162Z,98561.00
2023-03-03T02:03:03.352Z,98555.38
2023-03-03T02:08:08.790Z,98550.59
2023-03-03T02:13:15.862Z,98539.63
2023-03-03T02:18:21.313Z,98535.41
2023-03-03T02:23:32.040Z,98526.84
2023-03-03T02:28:39.995Z,98537.13
2023-03-03T02:33:49.152Z,98531.53
2023-03-03T02:38:59.946Z,98525.38
2023-03-03T02:44:06.962Z,98522.38
2023-03-03T02:49:13.025Z,98506.84
2023-03-03T02:54:18.605Z,98517.34
2023-03-03T02:59:24.342Z,98499.22
2023-03-03T03:04:29.582Z,98505.75
2023-03-03T03:09:33.655Z,98515.28
2023-03-03T03:14:39.795Z,98519.81
2023-03-03T03:19:44.642Z,98519.91
2023-03-03T03:24:48.882Z,98529.34
2023-03-03T03:29:54.586Z,98527.78
2023-03-03T03:34:59.437Z,98519.91
2023-03-03T03:40:03.866Z,98508.53
2023-03-03T03:45:11.118Z,98512.66
2023-03-03T03:50:15.939Z,98512.72
2023-03-03T03:55:22.704Z,98518.44
2023-03-03T04:00:28.816Z,98512.59
2023-03-03T04:05:36.510Z,98498.88
2023-03-03T04:10:41.324Z,98511.19
2023-03-03T04:15:46.887Z,98512.03
2023-03-03T04:20:52.427Z,98514.16
2023-03-03T04:25:57.074Z,98511.41
2023-03-03T04:31:03.382Z,98503.41
2023-03-03T04:36:09.854Z,98514.38
2023-03-03T04:41:17.565Z,98501.25
2023-03-03T04:46:23.996Z,98517.69
2023-03-03T04:51:28.971Z,98539.28
2023-03-03T04:56:33.583Z,98536.00
2023-03-03T05:01:39.316Z,98530.97
2023-03-03T05:06:43.644Z,98514.69
2023-03-03T05:11:47.706Z,98536.63
2023-03-03T05:16:53.171Z,98536.94
2023-03-03T05:21:57.624Z,98541.19
2023-03-03T05:27:01.550Z,98537.16
2023-03-03T05:32:06.941Z,98539.50
2023-03-03T05:37:11.094Z,98537.56
2023-03-03T05:42:15.704Z,98536.63
2023-03-03T05:47:21.100Z,98518.19
2023-03-03T05:52:25.575Z,98517.19
2023-03-03T05:57:29.783Z,98525.78
2023-03-03T06:02:35.406Z,98527.13
2023-03-03T06:07:39.582Z,98533.19
2023-03-03T06:12:43.471Z,98522.41
2023-03-03T06:17:49.309Z,98519.22
2023-03-03T06:22:53.443Z,98512.25
2023-03-03T06:27:58.073Z,98536.16
2023-03-03T06:33:03.614Z,98528.03
2023-03-03T06:38:07.563Z,98541.59
2023-03-03T06:43:11.799Z,98535.84
2023-03-03T06:48:17.300Z,98536.47
2023-03-03T06:53:21.516Z,98539.75
2023-03-03T06:58:27.669Z,98532.56
2023-03-03T07:03:35.721Z,98533.91
2023-03-03T07:08:41.578Z,98552.28
2023-03-03T07:13:47.924Z,98555.06
2023-03-03T07:18:54.947Z,98562.94
2023-03-03T07:23:59.507Z,98557.63
2023-03-03T07:29:15.553Z,98567.88
2023-03-03T07:34:24.419Z,98555.38
2023-03-03T07:39:39.145Z,98554.13
2023-03-03T07:44:47.008Z,98566.84
2023-03-03T07:49:53.416Z,98584.06
2023-03-03T07:54:59.249Z,98599.09
2023-03-03T08:00:30.485Z,98584.69
2023-03-03T08:05:38.859Z,98575.34
2023-03-03T08:10:45.465Z,98588.25
2023-03-03T08:15:51.739Z,98567.31
2023-03-03T08:20:59.521Z,98565.38
2023-03-03T08:26:03.444Z,98576.19
2023-03-03T08:31:19.978Z,98584.06
2023-03-03T08:36:28.128Z,98594.44
2023-03-03T08:41:32.347Z,98604.22
2023-03-03T08:46:36.351Z,98591.50
2023-03-03T08:51:42.064Z,98579.59
2023-03-03T08:56:46.044Z,98572.72
2023-03-03T09:01:50.358Z,98556.34
2023-03-03T09:06:55.855Z,98569.09
2023-03-03T09:12:03.178Z,98573.09
2023-03-03T09:17:19.274Z,98571.84
2023-03-03T09:22:26.934Z,98602.75
2023-03-03T09:27:33.158Z,98595.78
2023-03-03T09:32:39.458Z,98589.63
2023-03-03T09:37:45.338Z,98602.53
2023-03-03T09:43:00.723Z,98599.56
2023-03-03T09:48:29.239Z,98613.97
2023-03-03T09:53:48.956Z,98613.16
2023-03-03T09:59:03.195Z,98611.78
2023-03-03T10:04:38.015Z,98623.38
2023-03-03T10:09:59.518Z,98622.69
2023-03-03T10:15:16.809Z,98627.78
2023-03-03T10:20:49.052Z,98611.41
2023-03-03T10:26:07.217Z,98616.47
2023-03-03T10:31:20.652Z,98613.03
2023-03-03T10:36:39.742Z,98607.63
2023-03-03T10:41:55.845Z,98604.75
2023-03-03T10:47:13.555Z,98600.25
2023-03-03T10:52:34.588Z,98594.38
2023-03-03T10:57:45.952Z,98587.84
2023-03-03T11:03:14.561Z,98591.22
2023-03-03T11:08:20.979Z,98588.72
2023-03-03T11:13:33.981Z,98593.91
2023-03-03T11:18:52.162Z,98588.34
2023-03-03T11:24:08.192Z,98593.19
2023-03-03T11:29:34.741Z,98585.88
2023-03-03T11:34:51.660Z,98577.06
2023-03-03T11:39:59.143Z,98570.69
2023-03-03T11:45:13.498Z,98572.47
2023-03-03T11:50:22.088Z,98566.66
2023-03-03T11:55:29.144Z,98570.97
2023-03-03T12:00:38.486Z,98570.00
2023-03-03T12:05:50.577Z,98564.00
2023-03-03T12:11:00.584Z,98566.50
2023-03-03T12:16:13.595Z,98559.78
2023-03-03T12:21:27.228Z,98565.03
2023-03-03T12:26:37.508Z,98560.09
2023-03-03T12:31:50.184Z,98556.22
2023-03-03T12:37:12.052Z,98563.34
2023-03-03T12:42:24.946Z,98557.00
2023-03-03T12:47:34.657Z,98556.66
2023-03-03T12:52:47.765Z,98554.75
2023-03-03T12:57:59.313Z,98555.09
2023-03-03T13:03:12.840Z,98556.84
2023-03-03T13:08:44.161Z,98553.94
2023-03-03T13:13:54.088Z,98556.38
2023-03-03T13:19:04.725Z,98558.44
2023-03-03T13:24:17.104Z,98560.16
2023-03-03T13:29:24.300Z,98558.25
2023-03-03T13:34:41.312Z,98561.66
2023-03-03T13:39:54.571Z,98553.00
2023-03-03T13:44:58.687Z,98552.69
2023-03-03T13:50:20.115Z,98552.97
2023-03-03T13:55:28.794Z,98561.59
2023-03-03T14:00:49.399Z,98544.63
2023-03-03T14:06:03.295Z,98538.25
2023-03-03T14:11:11.841Z,98538.13
2023-03-03T14:16:20.192Z,98531.72
2023-03-03T14:21:30.621Z,98540.81
2023-03-03T14:26:46.231Z,98544.09
2023-03-03T14:31:50.326Z,98526.63
2023-03-03T14:37:09.469Z,98524.13
2023-03-03T14:42:15.667Z,98518.50
2023-03-03T14:47:24.243Z,98517.97
2023-03-03T14:52:31.203Z,98506.72
2023-03-03T14:57:47.268Z,98520.38
2023-03-03T15:03:02.990Z,98508.75
2023-03-03T15:08:15.755Z,98521.38
2023-03-03T15:13:35.103Z,98505.19
2023-03-03T15:19:06.896Z,98510.13
2023-03-03T15:24:18.381Z,98505.25
2023-03-03T15:29:26.094Z,98507.22
2023-03-03T15:34:38.908Z,98495.28
2023-03-03T15:39:50.255Z,98490.94
2023-03-03T15:45:00.707Z,98506.78
2023-03-03T15:50:16.440Z,98499.16
2023-03-03T15:55:35.113Z,98497.47
2023-03-03T16:00:49.646Z,98502.63
2023-03-03T16:05:55.302Z,98497.25
2023-03-03T16:11:08.026Z,98505.25
2023-03-03T16:16:21.506Z,98499.44
2023-03-03T16:21:35.655Z,98495.78
2023-03-03T16:26:49.661Z,98493.94
2023-03-03T16:31:57.883Z,98497.31
2023-03-03T16:37:08.520Z,98495.47
2023-03-03T16:42:23.706Z,98497.97
2023-03-03T16:47:43.771Z,98512.06
2023-03-03T16:52:50.785Z,98505.28
2023-03-03T16:58:06.815Z,98516.50
2023-03-03T17:03:22.682Z,98524.31
2023-03-03T17:08:50.966Z,98510.34
2023-03-03T17:14:08.162Z,98513.22
2023-03-03T17:19:23.886Z,98515.28
2023-03-03T17:24:37.505Z,98511.25
2023-03-03T17:29:51.812Z,98520.91
2023-03-03T17:35:09.784Z,98525.25
2023-03-03T17:40:37.832Z,98522.28
2023-03-03T17:45:46.654Z,98534.59
2023-03-03T17:51:07.048Z,98527.41
2023-03-03T17:56:19.137Z,98532.56
2023-03-03T18:01:35.851Z,98520.03
2023-03-03T18:07:10.079Z,98508.75
2023-03-03T18:12:19.709Z,98496.81
2023-03-03T18:17:36.512Z,98503.69
2023-03-03T18:22:44.949Z,98497.22
2023-03-03T18:28:10.085Z,98494.78
2023-03-03T18:33:17.357Z,98494.94
2023-03-03T18:38:44.068Z,98501.75
2023-03-03T18:43:59.420Z,98504.41
2023-03-03T18:49:06.040Z,98511.50
2023-03-03T18:54:30.585Z,98513.38
2023-03-03T18:59:53.912Z,98511.44
2023-03-03T19:05:10.426Z,98513.78
2023-03-03T19:10:53.037Z,98509.56
2023-03-03T19:15:59.382Z,98511.63
2023-03-03T19:21:07.292Z,98521.38
2023-03-03T19:26:32.818Z,98512.13
2023-03-03T19:31:42.711Z,98509.75
2023-03-03T19:37:01.064Z,98504.81
2023-03-03T19:42:14.115Z,98500.53
2023-03-03T19:47:26.218Z,98503.50
2023-03-03T19:52:38.116Z,98508.13
2023-03-03T19:57:51.562Z,98505.34
2023-03-03T20:03:20.477Z,98505.66
2023-03-03T20:08:30.527Z,98508.75
2023-03-03T20:13:55.147Z,98505.88
2023-03-03T20:19:11.699Z,98501.75
2023-03-03T20:24:39.984Z,98486.69
2023-03-03T20:30:15.666Z,98486.06
2023-03-03T20:35:26.607Z,98482.47
2023-03-03T20:40:36.176Z,98469.25
2023-03-03T20:45:49.954Z,98476.91
2023-03-03T20:51:01.552Z,98468.31
2023-03-03T20:56:11.941Z,98471.81
2023-03-03T21:01:21.460Z,98463.13
2023-03-03T21:06:38.824Z,98461.41
2023-03-03T21:11:45.335Z,98446.94
2023-03-03T21:16:50.210Z,98441.63
2023-03-03T21:21:55.619Z,98439.28
2023-03-03T21:27:01.978Z,98433.22
2023-03-03T21:32:07.718Z,98420.13
2023-03-03T21:37:13.930Z,98410.03
2023-03-03T21:42:30.198Z,98396.69
2023-03-03T21:47:34.459Z,98395.47
2023-03-03T21:52:38.580Z,98391.16
2023-03-03T21:57:44.621Z,98394.13
2023-03-03T22:02:48.902Z,98395.69
2023-03-03T22:07:52.997Z,98392.81
2023-03-03T22:12:58.527Z,98377.44
2023-03-03T22:18:02.788Z,98379.09
2023-03-03T22:23:06.906Z,98376.81
2023-03-03T22:28:12.301Z,98370.66
2023-03-03T22:33:16.546Z,98364.22
2023-03-03T22:38:20.797Z,98362.38
2023-03-03T22:43:27.461Z,98356.22
2023-03-03T22:48:31.877Z,98346.03
2023-03-03T22:53:36.191Z,98336.81
2023-03-03T22:58:42.317Z,98328.59
2023-03-03T23:03:46.628Z,98327.59
2023-03-03T23:08:50.730Z,98308.69
2023-03-03T23:13:56.238Z,98313.63
2023-03-03T23:19:00.161Z,98308.19
2023-03-03T23:24:04.877Z,98308.91
2023-03-03T23:29:10.328Z,98303.78
2023-03-03T23:34:14.219Z,98299.03
2023-03-03T23:39:18.333Z,98290.56
2023-03-03T23:44:24.554Z,98280.88
2023-03-03T23:49:28.652Z,98284.06
2023-03-03T23:54:32.914Z,98276.91
2023-03-03T23:59:38.584Z,98273.19
